Time;durP1;ratioP1;P1;durP2;ratioP2;P2;SDS_P1;SDS_P2;PMS_P1;PMS_P2;Temp;Humidity;BMP_temperature;BMP_pressure;BME280_temperature;BME280_humidity;BME280_pressure;Samples;Min_cycle;Max_cycle;Signal;HPM_P1;HPM_P2
2022/07/19 00:00:08;;;;;;;6.25;2.47;;;;;;;19.10;100.00;100806.59;5067456;28;20020;-69
2022/07/19 00:02:34;;;;;;;3.70;2.30;;;;;;;19.02;100.00;100796.59;5061760;28;20048;-69
2022/07/19 00:05:00;;;;;;;4.60;2.53;;;;;;;18.91;100.00;100785.06;5070934;28;20040;-69
2022/07/19 00:07:25;;;;;;;4.60;2.28;;;;;;;18.96;100.00;100793.56;5072951;28;20376;-69
2022/07/19 00:09:50;;;;;;;4.13;2.30;;;;;;;18.96;100.00;100797.03;5070954;28;20032;-69
2022/07/19 00:12:16;;;;;;;5.82;2.30;;;;;;;18.96;100.00;100799.69;5053323;28;20111;-68
2022/07/19 00:14:41;;;;;;;5.80;2.55;;;;;;;18.85;100.00;100781.09;5058189;28;20020;-69
2022/07/19 00:17:07;;;;;;;3.80;2.25;;;;;;;18.95;100.00;100786.53;5068130;28;20532;-69
2022/07/19 00:19:32;;;;;;;5.47;2.92;;;;;;;18.89;100.00;100794.00;5079055;28;20108;-69
2022/07/19 00:21:58;;;;;;;4.88;2.55;;;;;;;18.90;100.00;100792.19;5072617;28;20077;-69
2022/07/19 00:24:23;;;;;;;4.47;2.67;;;;;;;18.76;100.00;100773.78;5058014;28;20406;-69
2022/07/19 00:26:49;;;;;;;8.18;3.13;;;;;;;18.73;100.00;100769.56;5082017;28;20066;-69
2022/07/19 00:29:14;;;;;;;4.53;2.47;;;;;;;18.78;100.00;100790.50;5058721;28;20411;-69
2022/07/19 00:31:40;;;;;;;5.13;2.45;;;;;;;18.70;100.00;100783.13;5069486;28;20041;-69
2022/07/19 00:34:05;;;;;;;3.80;2.08;;;;;;;18.71;100.00;100773.31;5072981;28;20047;-69
2022/07/19 00:36:30;;;;;;;3.80;2.40;;;;;;;18.65;100.00;100773.81;5063740;28;20035;-69
2022/07/19 00:38:56;;;;;;;5.78;2.80;;;;;;;18.68;100.00;100776.22;5091333;28;20489;-69
2022/07/19 00:41:21;;;;;;;4.95;2.50;;;;;;;18.57;100.00;100760.22;5075124;28;20032;-69
2022/07/19 00:43:46;;;;;;;3.85;2.38;;;;;;;18.54;100.00;100760.47;5066331;28;20021;-69
2022/07/19 00:46:20;;;;;;;3.78;2.35;;;;;;;18.46;100.00;100746.84;5068330;28;20064;-69
2022/07/19 00:48:46;;;;;;;4.88;3.00;;;;;;;18.53;100.00;100756.94;5069470;28;20028;-69
2022/07/19 00:51:13;;;;;;;4.05;2.63;;;;;;;18.39;100.00;100731.38;5074785;28;20033;-68
2022/07/19 00:53:41;;;;;;;4.88;2.63;;;;;;;18.55;100.00;100764.84;5058712;28;20027;-68
2022/07/19 00:56:08;;;;;;;4.68;2.67;;;;;;;18.44;100.00;100748.81;5064609;28;20157;-69
2022/07/19 00:58:35;;;;;;;4.47;2.20;;;;;;;18.54;100.00;100760.47;5072492;28;20262;-69
2022/07/19 01:01:02;;;;;;;5.05;2.90;;;;;;;18.32;100.00;100730.16;5067979;28;20035;-69
2022/07/19 01:03:28;;;;;;;4.25;2.75;;;;;;;18.41;100.00;100749.03;5069303;28;20033;-69
2022/07/19 01:05:54;;;;;;;11.05;2.80;;;;;;;18.37;100.00;100749.28;5080325;28;20039;-69
2022/07/19 01:08:19;;;;;;;4.43;2.70;;;;;;;18.37;100.00;100743.97;5064315;28;20032;-69
2022/07/19 01:10:44;;;;;;;5.20;2.90;;;;;;;18.30;100.00;100736.56;5066513;28;20109;-68
2022/07/19 01:13:13;;;;;;;4.05;2.40;;;;;;;18.39;100.00;100755.31;5082492;28;20394;-69
2022/07/19 01:15:40;;;;;;;4.68;2.78;;;;;;;18.31;100.00;100743.59;5062609;28;20025;-69
2022/07/19 01:18:05;;;;;;;5.13;3.03;;;;;;;18.35;100.00;100755.69;5064959;28;20094;-68
2022/07/19 01:20:32;;;;;;;4.40;2.70;;;;;;;18.32;100.00;100750.56;5054841;28;20036;-68
2022/07/19 01:22:58;;;;;;;4.00;2.50;;;;;;;18.20;100.00;100735.56;5065402;28;20025;-68
2022/07/19 01:25:26;;;;;;;6.60;3.03;;;;;;;18.23;100.00;100740.66;5066267;28;20040;-69
2022/07/19 01:27:52;;;;;;;4.68;2.88;;;;;;;18.07;100.00;100722.38;5069772;28;20447;-69
2022/07/19 01:30:20;;;;;;;5.28;3.03;;;;;;;18.07;100.00;100725.03;5062096;28;20119;-69
2022/07/19 01:32:46;;;;;;;5.53;2.80;;;;;;;18.10;100.00;100745.22;5079513;28;20035;-69
2022/07/19 01:35:12;;;;;;;4.47;2.85;;;;;;;17.99;100.00;100727.41;5073177;28;20032;-71
2022/07/19 01:37:38;;;;;;;5.78;2.58;;;;;;;18.00;100.00;100734.44;5068628;28;20021;-71
2022/07/19 01:40:05;;;;;;;6.18;2.95;;;;;;;18.03;100.00;100743.97;5076365;28;20518;-68
2022/07/19 01:42:31;;;;;;;4.93;2.55;;;;;;;17.65;100.00;100688.34;5085202;28;20028;-69
2022/07/19 01:44:57;;;;;;;3.55;2.13;;;;;;;17.95;100.00;100738.38;5068519;28;20040;-69
2022/07/19 01:47:23;;;;;;;5.45;2.80;;;;;;;17.89;100.00;100734.38;5070558;28;20091;-69
2022/07/19 01:49:48;;;;;;;6.18;2.30;;;;;;;17.88;100.00;100730.88;5082135;28;20020;-69
2022/07/19 01:52:13;;;;;;;6.28;3.05;;;;;;;17.87;100.00;100733.66;5056954;28;20028;-69
2022/07/19 01:54:39;;;;;;;6.43;2.72;;;;;;;17.82;100.00;100731.34;5067473;28;20424;-70
2022/07/19 01:57:04;;;;;;;5.90;2.92;;;;;;;17.87;100.00;100736.31;5060325;28;20031;-71
2022/07/19 01:59:29;;;;;;;5.07;2.70;;;;;;;17.84;100.00;100739.22;5067481;28;20024;-69
2022/07/19 02:01:55;;;;;;;9.65;3.25;;;;;;;17.63;100.00;100704.44;5072471;28;20028;-71
2022/07/19 02:04:20;;;;;;;4.07;2.65;;;;;;;17.64;100.00;100714.09;5077068;28;20104;-69
2022/07/19 02:06:46;;;;;;;4.95;2.95;;;;;;;17.56;100.00;100707.66;5067811;28;20111;-68
2022/07/19 02:09:11;;;;;;;5.78;3.08;;;;;;;17.71;100.00;100735.78;5092141;28;20417;-68
2022/07/19 02:11:36;;;;;;;4.07;2.53;;;;;;;17.64;100.00;100721.25;5081303;28;20021;-69
2022/07/19 02:14:08;;;;;;;5.60;2.95;;;;;;;17.67;100.00;100727.19;5085136;28;20448;-68
2022/07/19 02:16:35;;;;;;;10.82;3.60;;;;;;;17.65;100.00;100726.41;5073855;28;20043;-68
2022/07/19 02:19:00;;;;;;;4.75;2.63;;;;;;;17.41;100.00;100691.00;5049679;28;20467;-68
2022/07/19 02:21:26;;;;;;;3.80;2.75;;;;;;;17.52;100.00;100716.78;5067401;28;20075;-68
2022/07/19 02:23:51;;;;;;;4.72;2.85;;;;;;;17.54;100.00;100721.00;5076515;28;20024;-68
2022/07/19 02:26:16;;;;;;;5.35;2.97;;;;;;;17.51;100.00;100720.38;5074027;28;20078;-68
2022/07/19 02:28:42;;;;;;;8.27;2.75;;;;;;;17.55;100.00;100716.56;5074168;28;20423;-68
2022/07/19 02:31:07;;;;;;;4.07;2.65;;;;;;;17.52;100.00;100706.16;5077448;28;20493;-68
2022/07/19 02:33:33;;;;;;;4.80;3.00;;;;;;;17.37;100.00;100682.41;5070938;28;20033;-68
2022/07/19 02:35:58;;;;;;;7.45;2.80;;;;;;;17.40;100.00;100694.63;5067290;28;20465;-67
2022/07/19 02:38:23;;;;;;;5.47;2.95;;;;;;;17.38;100.00;100704.50;5055751;28;20449;-69
2022/07/19 02:40:49;;;;;;;6.00;2.90;;;;;;;17.29;100.00;100690.09;5074108;28;20024;-68
2022/07/19 02:43:14;;;;;;;5.07;2.75;;;;;;;17.14;100.00;100667.31;5069527;28;20031;-67
2022/07/19 02:45:40;;;;;;;5.32;3.08;;;;;;;17.38;100.00;100715.13;5064953;28;20490;-68
2022/07/19 02:48:05;;;;;;;6.55;3.05;;;;;;;17.32;100.00;100711.13;5087499;28;20039;-68
2022/07/19 02:50:31;;;;;;;5.45;3.00;;;;;;;17.29;100.00;100716.66;5075468;28;20035;-68
2022/07/19 02:52:56;;;;;;;5.25;3.17;;;;;;;17.25;100.00;100709.88;5063332;28;20032;-68
2022/07/19 02:55:22;;;;;;;4.60;2.20;;;;;;;17.24;100.00;100712.63;5057452;28;20134;-68
2022/07/19 02:57:47;;;;;;;7.00;3.42;;;;;;;17.24;100.00;100712.63;5055940;28;20025;-69
2022/07/19 03:00:13;;;;;;;6.93;3.13;;;;;;;17.22;100.00;100709.25;5054114;28;20030;-68
2022/07/19 03:02:38;;;;;;;4.22;2.80;;;;;;;17.15;100.00;100703.53;5054824;28;20052;-69
2022/07/19 03:05:05;;;;;;;5.90;2.80;;;;;;;17.10;100.00;100700.34;5086132;27;20982;-69
2022/07/19 03:07:30;;;;;;;8.50;3.42;;;;;;;17.20;100.00;100717.31;5054488;28;20032;-69
2022/07/19 03:09:56;;;;;;;3.90;2.53;;;;;;;17.14;100.00;100712.44;5086627;27;20384;-69
2022/07/19 03:12:21;;;;;;;5.40;3.10;;;;;;;17.11;100.00;100706.50;5056371;28;20407;-69
2022/07/19 03:14:47;;;;;;;4.35;2.60;;;;;;;17.16;100.00;100715.00;5054970;28;20379;-68
2022/07/19 03:17:12;;;;;;;4.25;2.50;;;;;;;17.13;100.00;100705.47;5061190;28;20060;-68
2022/07/19 03:19:37;;;;;;;6.28;2.35;;;;;;;16.91;100.00;100684.06;5057056;28;20029;-68
2022/07/19 03:22:03;;;;;;;6.93;2.78;;;;;;;17.08;100.00;100712.06;5056429;28;20021;-68
2022/07/19 03:24:28;;;;;;;6.13;2.70;;;;;;;16.99;100.00;100689.69;5060561;28;20152;-68
2022/07/19 03:26:53;;;;;;;4.88;2.63;;;;;;;17.03;100.00;100700.94;5054314;28;20029;-69
2022/07/19 03:29:19;;;;;;;8.68;2.60;;;;;;;17.05;100.00;100707.81;5060176;28;20143;-70
2022/07/19 03:31:45;;;;;;;6.68;2.97;;;;;;;16.94;100.00;100694.47;5055353;28;20044;-69
2022/07/19 03:34:10;;;;;;;6.53;2.70;;;;;;;16.90;100.00;100692.16;5053486;28;20043;-69
2022/07/19 03:36:36;;;;;;;4.70;2.75;;;;;;;16.96;100.00;100713.78;5057463;28;20017;-69
2022/07/19 03:39:01;;;;;;;6.60;3.00;;;;;;;16.93;100.00;100708.72;5050452;28;20021;-69
2022/07/19 03:41:26;;;;;;;4.88;2.70;;;;;;;16.80;100.00;100695.44;5089826;27;20032;-69
2022/07/19 03:43:53;;;;;;;5.68;2.58;;;;;;;16.87;100.00;100714.44;5064477;28;20037;-70
2022/07/19 03:46:20;;;;;;;4.55;2.95;;;;;;;16.87;100.00;100709.13;5072042;28;20025;-68
2022/07/19 03:48:46;;;;;;;5.25;2.95;;;;;;;16.79;100.00;100701.72;5059580;28;20480;-69
2022/07/19 03:51:12;;;;;;;5.40;2.38;;;;;;;16.76;100.00;100711.72;5071581;28;20024;-69
2022/07/19 03:53:37;;;;;;;4.82;2.65;;;;;;;16.79;100.00;100714.16;5071638;28;20098;-69
2022/07/19 03:56:03;;;;;;;4.00;2.63;;;;;;;16.76;100.00;100724.97;5083113;28;20020;-69
2022/07/19 03:58:28;;;;;;;4.18;2.25;;;;;;;16.73;100.00;100717.22;5049525;28;20036;-69
2022/07/19 04:00:54;;;;;;;4.50;2.42;;;;;;;16.69;100.00;100711.28;5072711;28;20478;-69
2022/07/19 04:03:19;;;;;;;4.82;3.17;;;;;;;16.56;100.00;100691.03;5059376;28;20029;-69
2022/07/19 04:05:45;;;;;;;4.97;3.03;;;;;;;16.70;100.00;100717.44;5058351;28;20036;-69
2022/07/19 04:08:10;;;;;;;4.30;2.47;;;;;;;16.64;100.00;100713.41;5068433;28;20847;-69
2022/07/19 04:10:36;;;;;;;4.70;2.67;;;;;;;16.61;100.00;100710.13;5058882;28;20036;-69
2022/07/19 04:13:01;;;;;;;4.00;2.60;;;;;;;16.67;100.00;100707.88;5064559;28;20029;-69
2022/07/19 04:15:26;;;;;;;4.40;2.60;;;;;;;16.66;100.00;100710.66;5079060;28;20028;-69
2022/07/19 04:17:52;;;;;;;4.47;2.78;;;;;;;16.74;100.00;100719.75;5063985;28;20020;-69
2022/07/19 04:20:17;;;;;;;7.20;3.17;;;;;;;16.74;100.00;100719.75;5063991;28;20031;-69
2022/07/19 04:22:42;;;;;;;5.25;2.60;;;;;;;16.67;100.00;100693.75;5082420;28;20024;-69
2022/07/19 04:25:08;;;;;;;5.80;2.75;;;;;;;16.74;100.00;100706.50;5070287;28;20027;-69
2022/07/19 04:27:34;;;;;;;5.13;2.75;;;;;;;16.69;100.00;100699.84;5049240;28;20050;-69
2022/07/19 04:29:59;;;;;;;5.43;2.47;;;;;;;16.68;100.00;100703.44;5063601;28;20471;-69
2022/07/19 04:32:25;;;;;;;5.18;2.45;;;;;;;16.72;100.00;100704.91;5066235;28;20028;-69
2022/07/19 04:34:50;;;;;;;3.25;1.85;;;;;;;16.76;100.00;100711.72;5065377;28;20032;-69
2022/07/19 04:37:15;;;;;;;4.22;2.25;;;;;;;16.77;100.00;100702.78;5062612;28;20040;-69
2022/07/19 04:39:41;;;;;;;3.53;2.20;;;;;;;16.76;100.00;100698.44;5066698;28;20048;-69
2022/07/19 04:42:07;;;;;;;3.80;2.35;;;;;;;16.85;100.00;100705.75;5062157;28;20475;-68
2022/07/19 04:44:33;;;;;;;4.65;2.50;;;;;;;16.82;100.00;100690.88;5067212;28;20113;-69
2022/07/19 04:46:58;;;;;;;5.93;2.42;;;;;;;16.95;100.00;100712.09;5068458;28;20098;-69
2022/07/19 04:49:23;;;;;;;5.72;2.50;;;;;;;17.04;100.00;100714.06;5051791;28;20039;-68
2022/07/19 04:51:49;;;;;;;3.90;2.50;;;;;;;17.00;100.00;100701.97;5053291;28;20086;-68
2022/07/19 04:54:14;;;;;;;4.47;2.78;;;;;;;16.99;100.00;100695.00;5063090;28;20134;-68
2022/07/19 04:56:39;;;;;;;4.88;2.40;;;;;;;17.03;100.00;100693.81;5057566;28;20025;-68
2022/07/19 04:59:05;;;;;;;4.75;2.45;;;;;;;17.19;100.00;100715.63;5060756;28;20112;-69
2022/07/19 05:01:30;;;;;;;4.13;2.67;;;;;;;17.18;100.00;100703.31;5065989;28;20024;-68
2022/07/19 05:03:56;;;;;;;6.15;3.08;;;;;;;17.28;100.00;100709.66;5056750;28;20093;-68
2022/07/19 05:06:24;;;;;;;4.65;2.45;;;;;;;17.34;100.00;100708.34;5064390;28;20036;-68
2022/07/19 05:08:50;;;;;;;6.18;2.88;;;;;;;17.28;100.00;100688.41;5069989;28;20028;-69
2022/07/19 05:11:15;;;;;;;7.78;3.08;;;;;;;17.32;100.00;100671.28;5074687;28;20025;-69
2022/07/19 05:13:41;;;;;;;4.55;2.50;;;;;;;17.48;100.00;100694.03;5059815;28;20036;-70
2022/07/19 05:16:06;;;;;;;4.00;2.53;;;;;;;17.65;100.00;100712.28;5056733;28;20025;-69
2022/07/19 05:18:32;;;;;;;5.40;2.72;;;;;;;17.64;100.00;100700.78;5065924;28;20029;-69
2022/07/19 05:20:57;;;;;;;7.28;2.70;;;;;;;17.80;100.00;100716.47;5052229;28;20382;-69
2022/07/19 05:23:22;;;;;;;6.75;2.60;;;;;;;17.87;100.00;100715.03;5062757;28;20044;-69
2022/07/19 05:25:48;;;;;;;4.97;2.25;;;;;;;17.89;100.00;100705.13;5073812;28;20022;-69
2022/07/19 05:28:13;;;;;;;4.72;2.78;;;;;;;17.88;100.00;100690.97;5067644;28;20068;-69
2022/07/19 05:30:39;;;;;;;6.47;2.83;;;;;;;18.03;100.00;100701.41;5081252;28;20551;-69
2022/07/19 05:33:04;;;;;;;4.35;2.90;;;;;;;18.14;100.00;100699.66;5058631;28;20119;-69
2022/07/19 05:35:30;;;;;;;7.22;3.03;;;;;;;18.27;100.00;100711.03;5076229;28;20032;-70
2022/07/19 05:37:55;;;;;;;5.25;2.92;;;;;;;18.31;100.00;100703.66;5066804;28;20032;-69
2022/07/19 05:40:20;;;;;;;4.50;2.45;;;;;;;18.47;100.00;100713.97;5060798;28;20470;-69
2022/07/19 05:42:46;;;;;;;4.85;2.72;;;;;;;18.55;100.00;100708.94;5074198;28;20028;-69
2022/07/19 05:45:11;;;;;;;5.20;2.90;;;;;;;18.62;100.00;100700.31;5066595;28;20426;-69
2022/07/19 05:47:36;;;;;;;7.88;3.00;;;;;;;18.58;100.00;100672.28;5067620;28;20033;-69
2022/07/19 05:50:03;;;;;;;4.53;2.75;;;;;;;18.88;100.00;100708.94;5070598;28;20025;-69
2022/07/19 05:52:28;;;;;;;5.85;2.95;;;;;;;19.00;100.00;100710.59;5071763;28;20035;-69
2022/07/19 05:54:53;;;;;;;5.68;3.03;;;;;;;18.92;100.00;100669.59;5065979;28;20029;-69
2022/07/19 05:57:19;;;;;;;6.22;3.33;;;;;;;18.73;100.00;100644.41;5074728;28;20028;-70
2022/07/19 05:59:44;;;;;;;6.07;3.40;;;;;;;19.28;100.00;100711.91;5060645;28;20527;-70
2022/07/19 06:02:10;;;;;;;5.07;2.95;;;;;;;19.39;100.00;100711.88;5067647;28;20032;-69
2022/07/19 06:04:35;;;;;;;8.18;2.85;;;;;;;19.55;100.00;100716.81;5066819;28;20111;-69
2022/07/19 06:07:00;;;;;;;6.57;3.35;;;;;;;19.55;100.00;100695.50;5073507;28;20025;-69
2022/07/19 06:09:26;;;;;;;7.30;3.55;;;;;;;19.75;100.00;100714.19;5073848;28;20080;-69
2022/07/19 06:11:52;;;;;;;6.72;3.50;;;;;;;19.93;100.00;100718.97;5069059;28;20032;-69
2022/07/19 06:14:18;;;;;;;4.55;3.08;;;;;;;19.97;100.00;100699.91;5055218;28;20040;-69
2022/07/19 06:16:43;;;;;;;6.65;3.08;;;;;;;20.10;100.00;100708.56;5058811;28;20040;-70
2022/07/19 06:19:11;;;;;;;6.05;3.22;;;;;;;20.15;100.00;100695.66;5055159;28;20025;-69
2022/07/19 06:21:36;;;;;;;5.40;3.00;;;;;;;20.45;100.00;100712.75;5069634;28;20025;-69
2022/07/19 06:24:02;;;;;;;8.25;3.40;;;;;;;20.42;100.00;100696.97;5082497;28;20402;-70
2022/07/19 06:26:27;;;;;;;4.47;3.28;;;;;;;20.69;100.00;100718.63;5067363;28;20175;-70
2022/07/19 06:28:53;;;;;;;9.38;3.60;;;;;;;20.79;100.00;100711.50;5058998;28;20045;-70
2022/07/19 06:31:19;;;;;;;5.80;3.03;;;;;;;20.92;100.00;100720.13;5070303;28;20032;-70
2022/07/19 06:33:46;;;;;;;6.43;3.20;;;;;;;21.00;100.00;100712.28;5083942;28;20098;-70
2022/07/19 06:36:11;;;;;;;7.95;3.83;;;;;;;21.14;100.00;100714.63;5075012;28;20016;-70
2022/07/19 06:38:37;;;;;;;5.25;3.35;;;;;;;21.24;100.00;100720.81;5081964;28;20040;-70
2022/07/19 06:41:03;;;;;;;7.57;3.20;;;;;;;21.37;100.00;100724.09;5070304;28;20036;-69
2022/07/19 06:43:29;;;;;;;6.30;3.25;;;;;;;21.37;100.00;100702.69;5055527;28;20860;-70
2022/07/19 06:45:55;;;;;;;6.82;3.55;;;;;;;21.60;100.00;100730.03;5057019;28;20391;-70
2022/07/19 06:48:21;;;;;;;6.90;3.05;;;;;;;21.66;100.00;100700.06;5067665;28;20032;-70
2022/07/19 06:50:46;;;;;;;15.65;3.47;;;;;;;21.89;100.00;100720.22;5062059;28;20033;-70
2022/07/19 06:53:11;;;;;;;5.85;2.95;;;;;;;21.67;100.00;100663.44;5061904;28;20123;-69
2022/07/19 06:55:37;;;;;;;17.83;5.82;;;;;;;22.13;100.00;100719.78;5064720;28;20029;-69
2022/07/19 06:58:02;;;;;;;12.20;4.25;;;;;;;22.19;100.00;100711.19;5061145;28;20090;-69
2022/07/19 07:00:28;;;;;;;13.05;5.07;;;;;;;22.38;100.00;100721.84;5063347;28;20041;-69
2022/07/19 07:02:53;;;;;;;9.38;4.60;;;;;;;22.40;100.00;100713.69;5055489;28;20484;-69
2022/07/19 07:05:19;;;;;;;12.48;4.30;;;;;;;22.60;100.00;100719.81;5071758;28;20027;-69
2022/07/19 07:07:44;;;;;;;10.38;5.03;;;;;;;22.73;100.00;100715.00;5055891;28;20029;-69
2022/07/19 07:10:10;;;;;;;8.25;3.70;;;;;;;22.91;100.00;100723.97;5089297;27;20033;-70
2022/07/19 07:12:36;;;;;;;14.88;5.50;;;;;;;23.05;100.00;100717.28;5052102;28;20451;-70
2022/07/19 07:15:02;;;;;;;25.65;7.30;;;;;;;23.25;100.00;100716.97;5046044;28;20048;-70
2022/07/19 07:17:27;;;;;;;32.75;6.88;;;;;;;23.39;100.00;100719.16;5062240;28;20029;-70
2022/07/19 07:19:53;;;;;;;15.07;3.67;;;;;;;23.44;100.00;100720.59;5059868;28;20538;-70
2022/07/19 07:22:18;;;;;;;5.70;3.45;;;;;;;23.55;100.00;100717.69;5055703;28;20031;-70
2022/07/19 07:24:43;;;;;;;9.15;3.75;;;;;;;23.65;100.00;100713.94;5053288;28;20029;-70
2022/07/19 07:27:09;;;;;;;6.97;3.42;;;;;;;23.74;100.00;100709.47;5065353;28;20060;-70
2022/07/19 07:29:34;;;;;;;5.07;3.03;;;;;;;23.70;100.00;100679.41;5064164;28;20429;-70
2022/07/19 07:32:00;;;;;;;6.38;3.28;;;;;;;24.01;100.00;100709.38;5071559;28;20032;-70
2022/07/19 07:34:26;;;;;;;7.63;3.20;;;;;;;24.15;100.00;100708.88;5078398;28;20390;-70
2022/07/19 07:36:51;;;;;;;6.35;3.45;;;;;;;24.13;100.00;100686.66;5071342;28;20028;-70
2022/07/19 07:39:16;;;;;;;6.05;3.40;;;;;;;24.39;100.00;100714.41;5054459;28;20028;-70
2022/07/19 07:41:42;;;;;;;7.97;3.20;;;;;;;24.34;100.00;100679.09;5059445;28;20028;-69
2022/07/19 07:44:07;;;;;;;6.45;3.00;;;;;;;24.58;100.00;100693.69;5057546;28;20033;-70
2022/07/19 07:46:33;;;;;;;6.75;3.20;;;;;;;24.77;100.00;100712.28;5065510;28;20063;-69
2022/07/19 07:48:58;;;;;;;15.23;3.53;;;;;;;24.92;100.00;100705.31;5062959;28;20085;-70
2022/07/19 07:51:24;;;;;;;13.00;4.30;;;;;;;25.00;100.00;100705.34;5053742;28;20028;-70
2022/07/19 07:53:50;;;;;;;12.80;4.30;;;;;;;25.11;100.00;100710.41;5052035;28;20048;-70
2022/07/19 07:56:15;;;;;;;9.60;3.47;;;;;;;25.07;100.00;100681.34;5065151;28;20025;-70
2022/07/19 07:58:40;;;;;;;8.45;3.40;;;;;;;25.29;100.00;100707.63;5050979;28;20045;-70
2022/07/19 08:01:06;;;;;;;6.80;3.35;;;;;;;25.11;100.00;100661.19;5065722;28;20100;-70
2022/07/19 08:03:31;;;;;;;7.15;3.42;;;;;;;25.53;95.79;100710.41;5071047;28;20028;-70
2022/07/19 08:05:57;;;;;;;8.38;3.53;;;;;;;25.55;92.92;100684.16;5061097;28;20028;-70
2022/07/19 08:08:26;;;;;;;6.57;3.75;;;;;;;25.75;92.95;100687.41;5067650;28;20032;-70
2022/07/19 08:10:55;;;;;;;6.90;3.47;;;;;;;25.91;93.55;100703.56;5071458;28;20028;-70
2022/07/19 08:13:21;;;;;;;8.57;3.17;;;;;;;25.90;92.72;100688.41;5070178;28;20148;-70
2022/07/19 08:15:47;;;;;;;8.23;3.83;;;;;;;25.99;92.47;100679.28;5065921;28;20033;-74
2022/07/19 08:18:12;;;;;;;8.30;3.88;;;;;;;26.04;91.45;100687.72;5070306;28;20518;-70
2022/07/19 08:20:38;;;;;;;8.10;3.65;;;;;;;26.24;89.29;100699.84;5050748;28;20471;-70
2022/07/19 08:23:03;;;;;;;8.15;3.35;;;;;;;26.33;88.40;100685.34;5067278;28;20051;-70
2022/07/19 08:25:29;;;;;;;10.20;3.25;;;;;;;26.48;88.05;100684.66;5101800;28;20036;-70
2022/07/19 08:27:54;;;;;;;7.00;3.10;;;;;;;26.45;87.00;100663.44;5057005;28;20377;-70
2022/07/19 08:30:19;;;;;;;11.30;3.78;;;;;;;26.69;86.03;100679.53;5052199;28;20077;-70
2022/07/19 08:32:45;;;;;;;9.00;3.88;;;;;;;26.81;85.65;100680.84;5067409;28;20032;-70
2022/07/19 08:35:10;;;;;;;10.30;3.40;;;;;;;26.92;84.40;100677.78;5065902;28;20538;-70
2022/07/19 08:37:36;;;;;;;13.63;4.38;;;;;;;27.07;83.98;100676.00;5069721;28;20052;-70
2022/07/19 08:40:03;;;;;;;11.32;3.55;;;;;;;27.21;83.57;100674.44;5057937;28;20029;-70
2022/07/19 08:42:30;;;;;;;8.00;3.13;;;;;;;27.24;83.46;100655.22;5068767;28;20116;-70
2022/07/19 08:44:56;;;;;;;6.30;2.75;;;;;;;27.33;82.73;100664.91;5091198;28;20314;-70
2022/07/19 08:47:21;;;;;;;7.35;3.05;;;;;;;27.50;81.89;100660.28;5080573;28;20540;-70
2022/07/19 08:49:48;;;;;;;6.90;3.35;;;;;;;27.63;79.07;100644.31;5063745;28;20027;-70
2022/07/19 08:52:14;;;;;;;8.18;3.67;;;;;;;27.96;77.20;100671.88;5078640;28;20498;-70
2022/07/19 08:54:40;;;;;;;11.00;3.80;;;;;;;28.02;77.46;100653.06;5059953;28;20021;-70
2022/07/19 08:59:50;;;;;;;;;;;;;;;28.36;77.82;100672.38;5079687;28;20078;-70
2022/07/19 09:02:15;;;;;;;9.32;3.65;;;;;;;28.52;74.14;100662.41;5055383;28;19909;-70
2022/07/19 09:04:41;;;;;;;7.72;4.20;;;;;;;28.76;72.18;100656.75;5067490;28;20090;-70
2022/07/19 09:07:06;;;;;;;7.45;3.35;;;;;;;28.89;71.30;100659.63;5047147;28;20482;-70
2022/07/19 09:09:36;;;;;;;8.80;3.63;;;;;;;28.94;72.48;100657.16;5074674;28;20430;-70
2022/07/19 09:12:04;;;;;;;7.90;3.25;;;;;;;29.05;70.42;100661.25;5060785;28;20123;-70
2022/07/19 09:14:31;;;;;;;10.88;3.55;;;;;;;29.17;69.77;100657.84;5055604;28;20047;-70
2022/07/19 09:17:19;;;;;;;6.88;2.88;;;;;;;29.34;68.88;100662.03;5057651;28;20082;-70
2022/07/19 09:19:46;;;;;;;7.10;3.05;;;;;;;29.43;67.86;100646.53;5080590;27;20508;-70
2022/07/19 09:22:16;;;;;;;6.85;3.10;;;;;;;29.60;65.73;100647.09;5116613;27;20017;-71
2022/07/19 09:24:50;;;;;;;9.70;3.30;;;;;;;29.66;64.94;100640.91;5081637;28;20498;-71
2022/07/19 09:27:17;;;;;;;8.13;2.97;;;;;;;29.73;63.11;100652.66;5067095;28;20044;-70
2022/07/19 09:29:47;;;;;;;10.90;3.10;;;;;;;29.84;64.38;100650.25;5058498;28;20539;-71
2022/07/19 09:32:18;;;;;;;5.72;2.70;;;;;;;29.95;61.60;100638.06;5057645;28;20029;-71
2022/07/19 09:34:53;;;;;;;6.68;2.65;;;;;;;30.18;63.29;100641.34;5076793;28;20074;-71
2022/07/19 09:37:19;;;;;;;8.07;3.28;;;;;;;30.28;61.15;100644.53;5073315;28;20035;-70
2022/07/19 09:39:46;;;;;;;7.50;2.92;;;;;;;30.35;60.35;100642.72;5077756;28;20048;-70
2022/07/19 09:42:17;;;;;;;9.27;2.90;;;;;;;30.42;60.29;100636.56;5067952;28;20031;-71
2022/07/19 09:44:43;;;;;;;9.48;2.75;;;;;;;30.54;60.63;100640.38;5062564;28;20558;-71
2022/07/19 09:47:09;;;;;;;7.97;2.55;;;;;;;30.62;56.41;100618.50;5050119;28;20020;-70
2022/07/19 09:49:35;;;;;;;6.18;2.72;;;;;;;30.87;59.13;100630.50;5094228;28;20108;-70
2022/07/19 09:52:01;;;;;;;4.28;2.45;;;;;;;30.85;56.24;100617.16;5081907;28;20021;-70
2022/07/19 09:54:27;;;;;;;6.75;2.70;;;;;;;30.90;56.16;100603.78;5077785;28;20494;-71
2022/07/19 09:56:54;;;;;;;4.50;2.30;;;;;;;31.19;55.01;100624.38;5073465;28;20024;-70
2022/07/19 09:59:21;;;;;;;7.20;2.83;;;;;;;31.36;52.94;100620.22;5067181;28;20386;-70
2022/07/19 10:01:48;;;;;;;4.45;2.60;;;;;;;31.42;53.54;100613.97;5072685;28;20031;-70
2022/07/19 10:04:16;;;;;;;6.43;3.00;;;;;;;31.51;54.08;100621.94;5072720;28;20028;-70
2022/07/19 10:06:42;;;;;;;5.07;2.45;;;;;;;31.56;52.90;100619.47;5055725;28;20103;-70
2022/07/19 10:09:11;;;;;;;9.18;3.17;;;;;;;31.59;52.01;100627.19;5062079;28;20029;-70
2022/07/19 10:11:37;;;;;;;7.97;3.08;;;;;;;31.63;52.93;100609.44;5076110;28;20030;-70
2022/07/19 10:14:03;;;;;;;5.80;3.35;;;;;;;31.56;51.68;100592.28;5063004;28;20027;-70
2022/07/19 10:16:53;;;;;;;6.18;2.75;;;;;;;31.79;50.87;100609.00;5095560;28;20073;-71
2022/07/19 10:19:41;;;;;;;4.38;2.47;;;;;;;31.84;51.17;100599.16;5062223;28;20719;-70
2022/07/19 10:22:12;;;;;;;4.38;2.40;;;;;;;31.90;51.48;100587.47;5061217;28;20060;-70
2022/07/19 10:24:45;;;;;;;7.82;2.78;;;;;;;32.12;50.49;100604.41;5070167;28;20032;-65
2022/07/19 10:27:11;;;;;;;4.70;2.83;;;;;;;32.17;50.02;100595.63;5051364;28;20089;-68
2022/07/19 10:29:36;;;;;;;5.13;2.65;;;;;;;32.25;49.28;100589.91;5053726;28;20048;-72
2022/07/19 10:32:06;;;;;;;5.88;2.63;;;;;;;32.44;49.95;100602.66;5079492;28;20083;-67
2022/07/19 10:34:31;;;;;;;9.02;3.20;;;;;;;32.52;48.47;100587.97;5017457;28;1532409;-66
2022/07/19 10:36:57;;;;;;;4.30;2.42;;;;;;;32.59;48.33;100588.81;5071062;28;20052;-70
2022/07/19 10:39:33;;;;;;;6.70;2.80;;;;;;;32.68;49.18;100582.09;5062110;28;20040;-71
2022/07/19 10:42:13;;;;;;;5.97;2.88;;;;;;;32.87;49.17;100592.88;5075981;28;20107;-71
2022/07/19 10:44:59;;;;;;;7.30;2.92;;;;;;;32.95;48.53;100585.50;5065958;28;20373;-76
2022/07/19 10:47:37;;;;;;;8.38;2.75;;;;;;;33.08;47.78;100589.00;5052912;28;20044;-67
2022/07/19 10:50:10;;;;;;;9.07;2.78;;;;;;;33.17;48.21;100584.13;5073672;28;20340;-68
2022/07/19 10:52:39;;;;;;;8.80;3.03;;;;;;;33.22;47.19;100584.31;5054945;28;20047;-69
2022/07/19 10:55:29;;;;;;;4.90;3.00;;;;;;;33.33;47.35;100583.59;5055837;28;20283;-67
2022/07/19 10:58:06;;;;;;;6.35;2.53;;;;;;;33.40;44.98;100581.66;5072765;28;20112;-69
2022/07/19 11:00:43;;;;;;;8.48;3.00;;;;;;;33.45;46.74;100578.28;5063718;28;20059;-70
2022/07/19 11:03:21;;;;;;;8.38;2.72;;;;;;;33.56;44.91;100572.13;5105491;27;20028;-70
2022/07/19 11:05:50;;;;;;;7.18;2.72;;;;;;;33.64;46.83;100560.94;5071989;28;20024;-70
2022/07/19 11:08:16;;;;;;;11.15;3.40;;;;;;;33.75;45.95;100557.50;5066146;28;20383;-71
2022/07/19 11:10:42;;;;;;;7.50;3.28;;;;;;;33.89;48.08;100551.72;5055468;28;20032;-71
2022/07/19 11:13:07;;;;;;;9.05;3.33;;;;;;;34.01;45.90;100546.31;5075155;28;20367;-71
2022/07/19 11:15:33;;;;;;;5.28;2.90;;;;;;;34.18;46.77;100557.50;5073090;28;20052;-70
2022/07/19 11:18:04;;;;;;;7.80;3.08;;;;;;;34.36;43.27;100547.44;5057496;28;20060;-72